createdAt,value
2022-11-14T00:01:12.761Z,18.30
2022-11-14T00:03:39.598Z,17.37
2022-11-14T00:06:07.715Z,15.50
2022-11-14T00:08:40.242Z,17.37
2022-11-14T00:11:07.113Z,18.40
2022-11-14T00:13:33.809Z,17.93
2022-11-14T00:16:00.478Z,17.77
2022-11-14T00:18:27.456Z,18.40
2022-11-14T00:20:54.338Z,14.90
2022-11-14T00:23:24.583Z,18.50
2022-11-14T00:25:51.323Z,17.30
2022-11-14T00:28:18.073Z,16.77
2022-11-14T00:30:48.575Z,15.97
2022-11-14T00:33:20.017Z,18.37
2022-11-14T00:35:54.984Z,19.07
2022-11-14T00:38:22.303Z,17.37
2022-11-14T00:40:49.058Z,18.40
2022-11-14T00:43:15.857Z,18.30
2022-11-14T00:45:46.074Z,16.83
2022-11-14T00:48:13.407Z,16.70
2022-11-14T00:50:40.860Z,17.20
2022-11-14T00:53:07.873Z,20.53
2022-11-14T00:55:34.883Z,16.93
2022-11-14T00:58:01.607Z,19.30
2022-11-14T01:00:31.316Z,18.67
2022-11-14T01:02:58.392Z,18.10
2022-11-14T01:05:25.756Z,16.03
2022-11-14T01:07:52.587Z,18.30
2022-11-14T01:10:19.753Z,15.50
2022-11-14T01:12:46.744Z,14.50
2022-11-14T01:15:13.695Z,15.40
2022-11-14T01:17:40.419Z,16.07
2022-11-14T01:20:08.352Z,13.10
2022-11-14T01:22:35.109Z,12.77
2022-11-14T01:25:01.781Z,14.17
2022-11-14T01:27:33.865Z,13.60
2022-11-14T01:30:00.645Z,13.67
2022-11-14T01:32:27.880Z,12.13
2022-11-14T01:34:54.848Z,12.10
2022-11-14T01:37:21.616Z,16.20
2022-11-14T01:39:48.273Z,14.90
2022-11-14T01:42:17.355Z,13.60
2022-11-14T01:44:50.034Z,12.53
2022-11-14T01:47:23.918Z,17.97
2022-11-14T01:49:54.775Z,13.50
2022-11-14T01:52:28.894Z,14.13
2022-11-14T01:54:59.024Z,16.00
2022-11-14T01:57:30.942Z,16.07
2022-11-14T02:00:02.096Z,13.90
2022-11-14T02:02:28.953Z,16.13
2022-11-14T02:05:06.526Z,16.17
2022-11-14T02:07:37.921Z,15.07
2022-11-14T02:10:09.538Z,14.87
2022-11-14T02:12:37.353Z,18.27
2022-11-14T02:15:04.453Z,15.73
2022-11-14T02:17:32.434Z,14.93
2022-11-14T02:20:11.152Z,16.87
2022-11-14T02:22:39.462Z,16.70
2022-11-14T02:25:07.827Z,17.43
2022-11-14T02:27:36.272Z,15.50
2022-11-14T02:30:15.610Z,18.17
2022-11-14T02:33:09.306Z,16.00
2022-11-14T02:35:29.137Z,18.13
2022-11-14T02:37:55.950Z,16.93
2022-11-14T02:40:22.626Z,18.47
2022-11-14T02:42:49.414Z,18.37
2022-11-14T02:45:16.324Z,20.37
2022-11-14T02:47:43.065Z,16.90
2022-11-14T02:50:10.503Z,17.30
2022-11-14T02:52:37.182Z,19.07
2022-11-14T02:55:05.323Z,20.13
2022-11-14T02:57:32.064Z,19.47
2022-11-14T02:59:58.855Z,17.37
2022-11-14T03:02:28.294Z,17.63
2022-11-14T03:04:55.061Z,19.70
2022-11-14T03:07:24.887Z,16.63
2022-11-14T03:09:51.624Z,16.80
2022-11-14T03:12:20.018Z,21.97
2022-11-14T03:14:46.868Z,18.97
2022-11-14T03:17:13.655Z,17.13
2022-11-14T03:19:40.458Z,18.10
2022-11-14T03:22:07.399Z,17.33
2022-11-14T03:24:34.216Z,17.87
2022-11-14T03:27:00.979Z,18.83
2022-11-14T03:29:27.804Z,20.30
2022-11-14T03:31:54.495Z,20.17
2022-11-14T03:34:21.167Z,17.33
2022-11-14T03:36:47.836Z,18.50
2022-11-14T03:39:14.653Z,19.03
2022-11-14T03:41:41.322Z,18.10
2022-11-14T03:44:08.018Z,19.70
2022-11-14T03:46:34.760Z,18.37
2022-11-14T03:49:01.501Z,22.73
2022-11-14T03:51:28.186Z,18.83
2022-11-14T03:53:54.849Z,18.20
2022-11-14T03:56:24.705Z,21.07
2022-11-14T03:58:51.372Z,20.73
2022-11-14T04:01:18.084Z,19.20
2022-11-14T04:03:50.605Z,18.83
2022-11-14T04:06:17.456Z,18.37
2022-11-14T04:08:44.135Z,19.13
2022-11-14T04:11:10.850Z,20.37
2022-11-14T04:13:37.544Z,21.13
2022-11-14T04:16:04.550Z,20.60
2022-11-14T04:18:38.672Z,20.27
2022-11-14T04:21:05.542Z,19.00
2022-11-14T04:23:39.548Z,22.17
2022-11-14T04:26:06.296Z,21.53
2022-11-14T04:28:33.194Z,20.30
2022-11-14T04:31:00.420Z,21.37
2022-11-14T04:33:27.210Z,19.67
2022-11-14T04:35:53.965Z,20.50
2022-11-14T04:38:20.727Z,20.97
2022-11-14T04:40:56.259Z,21.27
2022-11-14T04:43:22.981Z,27.60
2022-11-14T04:45:49.764Z,22.23
2022-11-14T04:48:16.573Z,22.23
2022-11-14T04:50:44.929Z,23.67
2022-11-14T04:53:14.680Z,22.97
2022-11-14T04:55:41.402Z,23.73
2022-11-14T04:58:10.361Z,24.13
2022-11-14T05:00:37.062Z,21.33
2022-11-14T05:03:03.780Z,22.97
2022-11-14T05:05:31.980Z,23.73
2022-11-14T05:07:59.153Z,25.40
2022-11-14T05:10:25.886Z,22.97
2022-11-14T05:12:55.740Z,21.03
2022-11-14T05:15:22.634Z,24.30
2022-11-14T05:17:49.414Z,23.47
2022-11-14T05:20:16.720Z,22.07
2022-11-14T05:22:43.592Z,23.43
2022-11-14T05:25:10.447Z,20.80
2022-11-14T05:27:37.301Z,23.63
2022-11-14T05:30:04.417Z,22.90
2022-11-14T05:32:31.087Z,24.13
2022-11-14T05:34:57.853Z,23.23
2022-11-14T05:37:24.544Z,23.83
2022-11-14T05:39:51.306Z,24.40
2022-11-14T05:42:18.015Z,25.80
2022-11-14T05:44:44.679Z,23.47
2022-11-14T05:47:11.347Z,25.77
2022-11-14T05:49:38.059Z,26.10
2022-11-14T05:52:05.066Z,29.13
2022-11-14T05:54:31.749Z,25.50
2022-11-14T05:56:58.429Z,28.43
2022-11-14T05:59:25.218Z,27.43
2022-11-14T06:01:51.916Z,25.40
2022-11-14T06:04:18.799Z,22.73
2022-11-14T06:06:45.501Z,26.10
2022-11-14T06:09:12.263Z,26.27
2022-11-14T06:11:43.431Z,27.73
2022-11-14T06:14:13.048Z,20.87
2022-11-14T06:16:39.817Z,25.17
2022-11-14T06:19:06.700Z,25.60
2022-11-14T06:21:33.905Z,26.03
2022-11-14T06:24:00.598Z,27.40
2022-11-14T06:26:32.794Z,24.57
2022-11-14T06:29:00.686Z,24.03
2022-11-14T06:31:28.010Z,25.30
2022-11-14T06:33:54.945Z,23.47
2022-11-14T06:36:21.623Z,28.07
2022-11-14T06:38:48.337Z,23.77
2022-11-14T06:41:17.465Z,25.13
2022-11-14T06:43:47.175Z,26.73
2022-11-14T06:46:19.946Z,25.63
2022-11-14T06:48:49.094Z,25.73
2022-11-14T06:51:17.424Z,29.03
2022-11-14T06:53:44.631Z,25.13
2022-11-14T06:56:13.337Z,22.63
2022-11-14T06:58:42.471Z,25.00
2022-11-14T07:01:13.311Z,23.87
2022-11-14T07:03:41.178Z,29.80
2022-11-14T07:06:09.494Z,22.90
2022-11-14T07:08:36.764Z,24.70
2022-11-14T07:11:06.099Z,23.40
2022-11-14T07:13:33.656Z,25.83
2022-11-14T07:16:00.530Z,24.37
2022-11-14T07:18:29.667Z,27.13
2022-11-14T07:21:06.714Z,25.57
2022-11-14T07:23:34.839Z,25.60
2022-11-14T07:26:03.369Z,23.73
2022-11-14T07:28:30.794Z,26.43
2022-11-14T07:31:08.149Z,26.90
2022-11-14T07:33:35.456Z,24.33
2022-11-14T07:36:02.521Z,29.77
2022-11-14T07:38:34.131Z,26.00
2022-11-14T07:41:09.759Z,24.43
2022-11-14T07:43:36.863Z,25.17
2022-11-14T07:46:06.290Z,28.43
2022-11-14T07:48:34.068Z,22.07
2022-11-14T07:51:02.324Z,23.63
2022-11-14T07:53:29.780Z,22.23
2022-11-14T07:56:04.237Z,22.03
2022-11-14T07:58:33.727Z,22.37
2022-11-14T08:01:02.333Z,25.47
2022-11-14T08:03:29.531Z,23.33
2022-11-14T08:06:06.191Z,25.53
2022-11-14T08:08:33.594Z,23.23
2022-11-14T08:11:03.372Z,23.77
2022-11-14T08:13:33.967Z,25.80
2022-11-14T08:16:12.905Z,22.00
2022-11-14T08:18:42.692Z,26.67
2022-11-14T08:21:09.583Z,29.17
2022-11-14T08:23:36.548Z,24.90
2022-11-14T08:26:03.510Z,29.33
2022-11-14T08:28:30.606Z,22.33
2022-11-14T08:31:02.244Z,21.27
2022-11-14T08:33:29.638Z,21.20
2022-11-14T08:35:56.502Z,18.10
2022-11-14T08:38:23.265Z,20.40
2022-11-14T08:40:50.072Z,16.53
2022-11-14T08:43:16.851Z,14.13
2022-11-14T08:45:43.758Z,16.23
2022-11-14T08:48:11.387Z,15.17
2022-11-14T08:50:38.168Z,15.83
2022-11-14T08:53:04.866Z,15.03
2022-11-14T08:55:31.730Z,15.27
2022-11-14T08:57:58.567Z,13.50
2022-11-14T09:00:25.504Z,14.73
2022-11-14T09:02:52.367Z,12.03
2022-11-14T09:05:19.294Z,15.80
2022-11-14T09:07:46.020Z,14.23
2022-11-14T09:10:12.783Z,13.60
2022-11-14T09:12:39.578Z,14.73
2022-11-14T09:15:06.767Z,13.87
2022-11-14T09:17:33.682Z,14.13
2022-11-14T09:20:00.362Z,19.23
2022-11-14T09:22:27.068Z,14.30
2022-11-14T09:24:54.280Z,17.63
2022-11-14T09:27:21.109Z,15.10
2022-11-14T09:29:47.881Z,14.73
2022-11-14T09:32:16.424Z,14.07
2022-11-14T09:34:45.400Z,14.73
2022-11-14T09:37:12.175Z,12.73
2022-11-14T09:39:40.662Z,14.40
2022-11-14T09:42:32.252Z,11.90
2022-11-14T09:45:04.901Z,14.23
2022-11-14T09:47:46.703Z,13.60
2022-11-14T09:50:34.031Z,15.03
2022-11-14T09:53:10.380Z,12.47
2022-11-14T09:55:37.633Z,11.53
2022-11-14T09:58:06.359Z,11.97
2022-11-14T10:01:06.394Z,17.03
2022-11-14T10:03:57.734Z,13.13
2022-11-14T10:06:35.605Z,12.30
2022-11-14T10:09:21.558Z,13.70
2022-11-14T10:12:09.999Z,13.80
2022-11-14T10:14:55.605Z,13.10
2022-11-14T10:17:41.187Z,12.47
2022-11-14T10:20:21.745Z,14.23
2022-11-14T10:23:23.811Z,15.90
2022-11-14T10:26:08.451Z,16.50
2022-11-14T10:28:59.589Z,18.97
2022-11-14T10:31:53.953Z,13.77
2022-11-14T10:34:31.612Z,17.27
2022-11-14T10:37:12.158Z,15.53
2022-11-14T10:39:51.351Z,18.13
2022-11-14T10:42:32.177Z,17.77
2022-11-14T10:45:04.799Z,14.87
2022-11-14T10:47:39.837Z,17.93
2022-11-14T10:50:21.634Z,17.00
2022-11-14T10:52:52.144Z,16.47
2022-11-14T10:55:24.884Z,17.93
2022-11-14T10:58:11.068Z,16.43
2022-11-14T11:00:40.492Z,18.83
2022-11-14T11:03:07.653Z,18.20
2022-11-14T11:05:52.465Z,20.50
2022-11-14T11:08:44.137Z,17.63
2022-11-14T11:11:32.157Z,18.70
2022-11-14T11:14:01.221Z,16.20
2022-11-14T11:16:29.703Z,17.53
2022-11-14T11:19:25.646Z,17.17
2022-11-14T11:21:53.358Z,19.90
2022-11-14T11:24:34.039Z,16.60
2022-11-14T11:27:28.442Z,19.13
2022-11-14T11:30:07.410Z,20.97
2022-11-14T11:32:34.278Z,18.50
2022-11-14T11:35:03.960Z,18.40
2022-11-14T11:37:46.395Z,19.03
2022-11-14T11:40:25.400Z,18.40
2022-11-14T11:43:37.366Z,20.63
2022-11-14T11:45:59.702Z,20.57
2022-11-14T11:48:39.722Z,19.50
2022-11-14T11:51:14.049Z,20.37
2022-11-14T11:53:44.997Z,17.03
2022-11-14T11:56:26.562Z,19.60
2022-11-14T11:59:04.200Z,19.40
2022-11-14T12:01:30.965Z,18.80
2022-11-14T12:03:58.655Z,21.63
2022-11-14T12:06:28.614Z,21.33
2022-11-14T12:08:58.181Z,21.47
2022-11-14T12:11:27.936Z,20.70
2022-11-14T12:13:54.694Z,25.90
2022-11-14T12:16:49.001Z,25.37
2022-11-14T12:19:29.756Z,28.17
2022-11-14T12:22:07.620Z,31.60
2022-11-14T12:24:37.573Z,30.23
2022-11-14T12:27:51.981Z,36.00
2022-11-14T12:30:24.409Z,32.23
2022-11-14T12:33:17.138Z,36.30
2022-11-14T12:36:02.562Z,41.50
2022-11-14T12:38:42.198Z,40.10
2022-11-14T12:41:10.090Z,35.30
2022-11-14T12:43:43.536Z,37.20
2022-11-14T12:46:13.076Z,40.53
2022-11-14T12:49:01.715Z,41.13
2022-11-14T12:51:28.608Z,39.30
2022-11-14T12:53:58.792Z,39.77
2022-11-14T12:56:31.401Z,39.30
2022-11-14T12:59:28.330Z,42.23
2022-11-14T13:02:39.390Z,41.70
2022-11-14T13:05:42.499Z,38.87
2022-11-14T13:08:57.162Z,37.07
2022-11-14T13:11:58.003Z,34.20
2022-11-14T13:14:43.770Z,35.93
2022-11-14T13:17:34.961Z,35.53
2022-11-14T13:20:41.901Z,38.33
2022-11-14T13:23:26.874Z,35.47
2022-11-14T13:26:12.243Z,34.87
2022-11-14T13:28:46.482Z,32.37
2022-11-14T13:31:16.284Z,34.17
2022-11-14T13:33:43.714Z,33.87
2022-11-14T13:36:22.329Z,35.23
2022-11-14T13:39:10.257Z,32.00
2022-11-14T13:41:49.758Z,32.77
2022-11-14T13:44:40.286Z,33.40
2022-11-14T13:47:29.158Z,35.17
2022-11-14T13:49:58.949Z,31.73
2022-11-14T13:52:32.509Z,29.53
2022-11-14T13:55:00.160Z,32.50
2022-11-14T13:57:42.371Z,36.13
2022-11-14T14:00:19.648Z,32.10
2022-11-14T14:03:34.269Z,31.03
2022-11-14T14:06:30.306Z,26.77
2022-11-14T14:08:57.035Z,30.43
2022-11-14T14:11:47.112Z,30.23
2022-11-14T14:14:45.937Z,31.03
2022-11-14T14:17:31.277Z,31.47
2022-11-14T14:20:20.017Z,29.77
2022-11-14T14:22:59.618Z,27.20
2022-11-14T14:25:56.154Z,30.00
2022-11-14T14:29:06.271Z,28.13
2022-11-14T14:31:41.956Z,28.43
2022-11-14T14:34:28.074Z,28.63
2022-11-14T14:36:56.409Z,29.27
2022-11-14T14:39:25.494Z,31.87
2022-11-14T14:41:57.392Z,31.93
2022-11-14T14:44:40.065Z,30.03
2022-11-14T14:47:42.163Z,30.43
2022-11-14T14:50:18.027Z,33.03
2022-11-14T14:52:44.975Z,31.47
2022-11-14T14:55:28.291Z,30.97
2022-11-14T14:57:55.323Z,30.97
2022-11-14T15:00:26.363Z,30.80
2022-11-14T15:02:55.567Z,31.70
2022-11-14T15:05:27.652Z,31.33
2022-11-14T15:08:00.899Z,30.43
2022-11-14T15:10:31.271Z,33.70
2022-11-14T15:12:58.910Z,32.10
2022-11-14T15:15:30.391Z,29.80
2022-11-14T15:17:59.326Z,33.80
2022-11-14T15:20:28.721Z,34.80
2022-11-14T15:23:10.712Z,32.20
2022-11-14T15:25:38.072Z,35.87
2022-11-14T15:28:13.236Z,33.93
2022-11-14T15:30:40.090Z,34.53
2022-11-14T15:33:29.367Z,36.90
2022-11-14T15:36:14.868Z,32.53
2022-11-14T15:39:02.241Z,30.43
2022-11-14T15:41:30.497Z,31.87
2022-11-14T15:44:05.685Z,34.77
2022-11-14T15:46:46.126Z,35.40
2022-11-14T15:49:27.340Z,32.53
2022-11-14T15:52:03.550Z,33.50
2022-11-14T15:54:32.938Z,32.07
2022-11-14T15:57:12.225Z,32.87
2022-11-14T15:59:39.121Z,34.03
2022-11-14T16:02:19.507Z,37.37
2022-11-14T16:04:47.952Z,34.47
2022-11-14T16:07:16.743Z,31.07
2022-11-14T16:09:43.921Z,34.07
2022-11-14T16:12:10.836Z,36.23
2022-11-14T16:14:37.639Z,36.03
2022-11-14T16:17:15.644Z,35.37
2022-11-14T16:19:42.792Z,36.00
2022-11-14T16:22:13.071Z,38.30
2022-11-14T16:24:39.965Z,36.10
2022-11-14T16:27:06.950Z,37.20
2022-11-14T16:29:33.861Z,36.37
2022-11-14T16:32:00.761Z,39.10
2022-11-14T16:34:28.013Z,38.17
2022-11-14T16:36:59.899Z,36.70
2022-11-14T16:39:27.126Z,36.60
2022-11-14T16:41:54.011Z,34.63
2022-11-14T16:44:20.756Z,42.10
2022-11-14T16:46:50.634Z,43.50
2022-11-14T16:49:21.305Z,38.07
2022-11-14T16:51:50.260Z,37.13
2022-11-14T16:54:21.029Z,35.43
2022-11-14T16:56:48.397Z,34.77
2022-11-14T16:59:15.183Z,33.53
2022-11-14T17:01:45.323Z,33.80
2022-11-14T17:04:12.617Z,27.90
2022-11-14T17:06:39.696Z,35.83
2022-11-14T17:09:06.487Z,33.90
2022-11-14T17:11:33.294Z,34.07
2022-11-14T17:13:59.954Z,33.87
2022-11-14T17:16:29.866Z,38.13
2022-11-14T17:18:56.690Z,34.47
2022-11-14T17:21:23.733Z,33.33
2022-11-14T17:24:01.638Z,31.47
2022-11-14T17:26:29.099Z,31.20
2022-11-14T17:28:56.125Z,34.03
2022-11-14T17:31:23.021Z,30.37
2022-11-14T17:33:54.317Z,27.90
2022-11-14T17:36:22.726Z,30.37
2022-11-14T17:38:49.635Z,27.17
2022-11-14T17:41:16.326Z,26.93
2022-11-14T17:43:43.700Z,26.77
2022-11-14T17:46:15.843Z,29.23
2022-11-14T17:48:44.547Z,27.67
2022-11-14T17:51:16.060Z,25.10
2022-11-14T17:53:43.473Z,29.47
2022-11-14T17:56:17.543Z,23.33
2022-11-14T17:58:45.472Z,28.90
2022-11-14T18:01:15.140Z,24.90
2022-11-14T18:03:42.316Z,24.30
2022-11-14T18:06:11.115Z,23.97
2022-11-14T18:08:38.508Z,23.23
2022-11-14T18:11:08.306Z,25.53
2022-11-14T18:13:35.056Z,22.77
2022-11-14T18:16:08.194Z,24.70
2022-11-14T18:18:36.413Z,26.13
2022-11-14T18:21:15.176Z,22.67
2022-11-14T18:23:42.566Z,20.70
2022-11-14T18:26:10.350Z,22.00
2022-11-14T18:28:37.217Z,21.63
2022-11-14T18:31:04.673Z,19.73
2022-11-14T18:33:32.478Z,20.27
2022-11-14T18:36:00.609Z,21.33
2022-11-14T18:38:31.546Z,22.27
2022-11-14T18:41:00.859Z,21.43
2022-11-14T18:43:29.775Z,20.10
2022-11-14T18:45:56.926Z,16.97
2022-11-14T18:48:25.035Z,23.80
2022-11-14T18:50:51.736Z,19.70
2022-11-14T18:53:18.760Z,19.10
2022-11-14T18:55:45.744Z,20.13
2022-11-14T18:58:13.780Z,16.63
2022-11-14T19:00:45.222Z,21.73
2022-11-14T19:03:14.240Z,21.00
2022-11-14T19:05:41.082Z,22.83
2022-11-14T19:08:10.491Z,19.40
2022-11-14T19:10:37.249Z,21.53
2022-11-14T19:13:03.964Z,21.03
2022-11-14T19:15:34.478Z,24.80
2022-11-14T19:18:01.316Z,21.73
2022-11-14T19:20:27.990Z,19.50
2022-11-14T19:22:54.792Z,20.63
2022-11-14T19:25:21.632Z,17.63
2022-11-14T19:27:54.398Z,17.50
2022-11-14T19:30:21.126Z,19.60
2022-11-14T19:32:47.849Z,17.57
2022-11-14T19:35:19.811Z,22.77
2022-11-14T19:37:47.371Z,18.57
2022-11-14T19:40:14.484Z,21.20
2022-11-14T19:42:41.229Z,18.23
2022-11-14T19:45:08.395Z,19.10
2022-11-14T19:47:35.089Z,18.90
2022-11-14T19:50:01.919Z,16.77
2022-11-14T19:52:28.655Z,20.23
2022-11-14T19:54:55.367Z,19.70
2022-11-14T19:57:22.142Z,18.93
2022-11-14T19:59:49.024Z,20.13
2022-11-14T20:02:15.834Z,18.73
2022-11-14T20:04:43.707Z,22.47
2022-11-14T20:07:10.454Z,20.63
2022-11-14T20:09:37.215Z,22.60
2022-11-14T20:12:04.078Z,19.47
2022-11-14T20:14:30.965Z,24.77
2022-11-14T20:16:57.632Z,22.07
2022-11-14T20:19:24.537Z,22.27
2022-11-14T20:21:51.307Z,24.83
2022-11-14T20:24:21.522Z,22.90
2022-11-14T20:26:48.709Z,21.63
2022-11-14T20:29:15.547Z,24.97
2022-11-14T20:31:42.241Z,22.43
2022-11-14T20:34:10.527Z,21.37
2022-11-14T20:36:57.021Z,20.17
2022-11-14T20:39:24.103Z,21.40
2022-11-14T20:41:50.902Z,23.43
2022-11-14T20:44:18.922Z,22.93
2022-11-14T20:46:45.643Z,21.43
2022-11-14T20:49:12.452Z,23.83
2022-11-14T20:51:39.215Z,20.63
2022-11-14T20:54:09.148Z,20.50
2022-11-14T20:56:35.955Z,21.00
2022-11-14T20:59:07.251Z,23.13
2022-11-14T21:01:35.214Z,24.43
2022-11-14T21:04:04.748Z,23.47
2022-11-14T21:06:31.510Z,23.50
2022-11-14T21:08:58.216Z,23.27
2022-11-14T21:11:24.933Z,23.37
2022-11-14T21:13:57.730Z,24.47
2022-11-14T21:16:44.891Z,26.07
2022-11-14T21:19:11.652Z,27.00
2022-11-14T21:21:38.942Z,27.67
2022-11-14T21:24:06.339Z,23.33
2022-11-14T21:26:36.514Z,21.90
2022-11-14T21:29:11.138Z,26.63
2022-11-14T21:31:44.589Z,24.30
2022-11-14T21:34:14.316Z,23.93
2022-11-14T21:36:46.248Z,24.97
2022-11-14T21:39:17.564Z,24.77
2022-11-14T21:41:45.723Z,21.73
2022-11-14T21:44:15.744Z,22.40
2022-11-14T21:46:42.999Z,25.93
2022-11-14T21:49:10.386Z,26.50
2022-11-14T21:51:37.175Z,23.03
2022-11-14T21:54:05.152Z,27.83
2022-11-14T21:56:34.026Z,29.13
2022-11-14T21:59:15.008Z,22.90
2022-11-14T22:02:03.309Z,26.23
2022-11-14T22:04:31.411Z,25.17
2022-11-14T22:06:58.885Z,30.00
2022-11-14T22:09:27.991Z,28.37
2022-11-14T22:11:55.330Z,31.03
2022-11-14T22:14:22.331Z,25.00
2022-11-14T22:16:49.099Z,31.00
2022-11-14T22:19:15.905Z,32.20
2022-11-14T22:21:42.817Z,32.30
2022-11-14T22:24:09.476Z,32.43
2022-11-14T22:26:39.885Z,31.80
2022-11-14T22:29:07.757Z,29.63
2022-11-14T22:31:35.112Z,27.67
2022-11-14T22:34:05.710Z,30.20
2022-11-14T22:36:33.294Z,35.07
2022-11-14T22:39:00.229Z,32.90
2022-11-14T22:41:32.729Z,29.67
2022-11-14T22:44:00.257Z,32.10
2022-11-14T22:46:27.677Z,33.13
2022-11-14T22:48:55.081Z,33.70
2022-11-14T22:51:24.310Z,31.83
2022-11-14T22:53:53.403Z,31.97
2022-11-14T22:56:22.520Z,32.37
2022-11-14T22:58:49.249Z,33.93
2022-11-14T23:01:23.087Z,37.20
2022-11-14T23:03:55.246Z,40.73
2022-11-14T23:06:23.247Z,32.93
2022-11-14T23:08:50.962Z,38.17
2022-11-14T23:11:24.112Z,31.93
2022-11-14T23:13:53.279Z,33.93
2022-11-14T23:16:25.427Z,41.57
2022-11-14T23:18:55.422Z,32.83
2022-11-14T23:21:31.266Z,38.57
2022-11-14T23:24:00.597Z,36.30
2022-11-14T23:26:28.912Z,34.53
2022-11-14T23:28:56.362Z,37.33
2022-11-14T23:31:24.087Z,41.13
2022-11-14T23:33:53.280Z,39.20
2022-11-14T23:36:20.192Z,33.97
2022-11-14T23:38:47.304Z,35.50
2022-11-14T23:41:28.059Z,38.93
2022-11-14T23:43:54.994Z,39.70
2022-11-14T23:46:21.755Z,43.00
2022-11-14T23:48:48.875Z,35.73
2022-11-14T23:51:15.660Z,45.10
2022-11-14T23:53:42.447Z,41.50
2022-11-14T23:56:13.120Z,42.23
2022-11-14T23:58:40.641Z,40.43
